sensor_id;sensor_type;location;lat;lon;timestamp;P1;durP1;ratioP1;P2;durP2;ratioP2
26277;SDS011;14000;52.056;8.510;2022-07-09T00:01:54;11.87;;;4.37;;
26277;SDS011;14000;52.056;8.510;2022-07-09T00:04:19;10.57;;;3.40;;
26277;SDS011;14000;52.056;8.510;2022-07-09T00:06:45;12.13;;;3.80;;
26277;SDS011;14000;52.056;8.510;2022-07-09T00:09:10;10.23;;;3.50;;
26277;SDS011;14000;52.056;8.510;2022-07-09T00:11:38;8.93;;;3.27;;
26277;SDS011;14000;52.056;8.510;2022-07-09T00:14:03;11.70;;;4.70;;
26277;SDS011;14000;52.056;8.510;2022-07-09T00:16:29;10.33;;;3.63;;
26277;SDS011;14000;52.056;8.510;2022-07-09T00:18:55;11.70;;;3.77;;
26277;SDS011;14000;52.056;8.510;2022-07-09T00:21:20;10.67;;;4.40;;
26277;SDS011;14000;52.056;8.510;2022-07-09T00:23:46;10.23;;;3.40;;
26277;SDS011;14000;52.056;8.510;2022-07-09T00:26:11;9.27;;;3.43;;
26277;SDS011;14000;52.056;8.510;2022-07-09T00:28:37;12.43;;;4.40;;
26277;SDS011;14000;52.056;8.510;2022-07-09T00:31:03;13.10;;;4.30;;
26277;SDS011;14000;52.056;8.510;2022-07-09T00:33:28;11.27;;;3.83;;
26277;SDS011;14000;52.056;8.510;2022-07-09T00:35:54;10.93;;;3.67;;
26277;SDS011;14000;52.056;8.510;2022-07-09T00:38:20;10.83;;;3.93;;
26277;SDS011;14000;52.056;8.510;2022-07-09T00:40:45;10.23;;;4.33;;
26277;SDS011;14000;52.056;8.510;2022-07-09T00:43:15;10.00;;;3.97;;
26277;SDS011;14000;52.056;8.510;2022-07-09T00:45:44;12.30;;;4.20;;
26277;SDS011;14000;52.056;8.510;2022-07-09T00:48:11;10.90;;;3.77;;
26277;SDS011;14000;52.056;8.510;2022-07-09T00:50:37;10.10;;;3.80;;
26277;SDS011;14000;52.056;8.510;2022-07-09T00:53:04;12.83;;;4.50;;
26277;SDS011;14000;52.056;8.510;2022-07-09T00:55:31;12.70;;;4.97;;
26277;SDS011;14000;52.056;8.510;2022-07-09T00:57:58;11.27;;;4.80;;
26277;SDS011;14000;52.056;8.510;2022-07-09T01:00:23;10.10;;;4.57;;
26277;SDS011;14000;52.056;8.510;2022-07-09T01:02:49;10.63;;;3.60;;
26277;SDS011;14000;52.056;8.510;2022-07-09T01:05:14;11.37;;;4.67;;
26277;SDS011;14000;52.056;8.510;2022-07-09T01:07:40;10.63;;;4.87;;
26277;SDS011;14000;52.056;8.510;2022-07-09T01:10:06;10.87;;;3.90;;
26277;SDS011;14000;52.056;8.510;2022-07-09T01:12:32;11.00;;;4.77;;
26277;SDS011;14000;52.056;8.510;2022-07-09T01:14:57;11.50;;;4.80;;
26277;SDS011;14000;52.056;8.510;2022-07-09T01:17:23;10.23;;;4.70;;
26277;SDS011;14000;52.056;8.510;2022-07-09T01:19:49;11.03;;;4.77;;
26277;SDS011;14000;52.056;8.510;2022-07-09T01:22:14;13.50;;;5.10;;
26277;SDS011;14000;52.056;8.510;2022-07-09T01:24:40;13.87;;;5.90;;
26277;SDS011;14000;52.056;8.510;2022-07-09T01:27:06;13.80;;;5.87;;
26277;SDS011;14000;52.056;8.510;2022-07-09T01:29:32;12.20;;;5.10;;
26277;SDS011;14000;52.056;8.510;2022-07-09T01:31:58;10.67;;;4.60;;
26277;SDS011;14000;52.056;8.510;2022-07-09T01:34:24;13.30;;;5.33;;
26277;SDS011;14000;52.056;8.510;2022-07-09T01:36:50;12.37;;;5.43;;
26277;SDS011;14000;52.056;8.510;2022-07-09T01:39:15;13.00;;;5.67;;
26277;SDS011;14000;52.056;8.510;2022-07-09T01:41:41;13.73;;;6.03;;
26277;SDS011;14000;52.056;8.510;2022-07-09T01:44:07;15.50;;;5.70;;
26277;SDS011;14000;52.056;8.510;2022-07-09T01:46:33;11.13;;;5.77;;
26277;SDS011;14000;52.056;8.510;2022-07-09T01:48:59;14.93;;;6.10;;
26277;SDS011;14000;52.056;8.510;2022-07-09T01:51:25;14.03;;;6.40;;
26277;SDS011;14000;52.056;8.510;2022-07-09T01:53:51;15.63;;;5.90;;
26277;SDS011;14000;52.056;8.510;2022-07-09T01:56:16;11.40;;;5.23;;
26277;SDS011;14000;52.056;8.510;2022-07-09T01:58:42;12.47;;;5.90;;
26277;SDS011;14000;52.056;8.510;2022-07-09T02:01:09;13.97;;;6.87;;
26277;SDS011;14000;52.056;8.510;2022-07-09T02:03:34;13.57;;;5.70;;
26277;SDS011;14000;52.056;8.510;2022-07-09T02:06:00;14.33;;;6.20;;
26277;SDS011;14000;52.056;8.510;2022-07-09T02:08:26;15.43;;;7.17;;
26277;SDS011;14000;52.056;8.510;2022-07-09T02:10:52;14.37;;;7.13;;
26277;SDS011;14000;52.056;8.510;2022-07-09T02:13:19;11.40;;;5.50;;
26277;SDS011;14000;52.056;8.510;2022-07-09T02:15:45;13.77;;;7.03;;
26277;SDS011;14000;52.056;8.510;2022-07-09T02:18:11;16.43;;;7.53;;
26277;SDS011;14000;52.056;8.510;2022-07-09T02:20:37;13.23;;;7.37;;
26277;SDS011;14000;52.056;8.510;2022-07-09T02:23:03;14.77;;;7.33;;
26277;SDS011;14000;52.056;8.510;2022-07-09T02:25:29;16.47;;;8.07;;
26277;SDS011;14000;52.056;8.510;2022-07-09T02:27:54;13.87;;;7.17;;
26277;SDS011;14000;52.056;8.510;2022-07-09T02:30:20;14.13;;;7.30;;
26277;SDS011;14000;52.056;8.510;2022-07-09T02:32:46;12.77;;;7.37;;
26277;SDS011;14000;52.056;8.510;2022-07-09T02:35:11;15.50;;;7.83;;
26277;SDS011;14000;52.056;8.510;2022-07-09T02:37:37;15.50;;;7.67;;
26277;SDS011;14000;52.056;8.510;2022-07-09T02:40:03;13.47;;;8.03;;
26277;SDS011;14000;52.056;8.510;2022-07-09T02:42:30;15.03;;;7.27;;
26277;SDS011;14000;52.056;8.510;2022-07-09T02:44:55;16.77;;;7.97;;
26277;SDS011;14000;52.056;8.510;2022-07-09T02:47:21;16.70;;;6.67;;
26277;SDS011;14000;52.056;8.510;2022-07-09T02:49:47;15.10;;;6.00;;
26277;SDS011;14000;52.056;8.510;2022-07-09T02:52:12;16.20;;;7.20;;
26277;SDS011;14000;52.056;8.510;2022-07-09T02:54:38;16.23;;;7.13;;
26277;SDS011;14000;52.056;8.510;2022-07-09T02:57:04;15.30;;;7.80;;
26277;SDS011;14000;52.056;8.510;2022-07-09T02:59:29;14.20;;;7.47;;
26277;SDS011;14000;52.056;8.510;2022-07-09T03:01:55;14.33;;;7.37;;
26277;SDS011;14000;52.056;8.510;2022-07-09T03:04:21;17.33;;;7.03;;
26277;SDS011;14000;52.056;8.510;2022-07-09T03:06:46;14.10;;;6.60;;
26277;SDS011;14000;52.056;8.510;2022-07-09T03:09:13;16.47;;;6.83;;
26277;SDS011;14000;52.056;8.510;2022-07-09T03:11:38;16.03;;;7.03;;
26277;SDS011;14000;52.056;8.510;2022-07-09T03:14:04;19.60;;;9.47;;
26277;SDS011;14000;52.056;8.510;2022-07-09T03:16:29;18.57;;;9.70;;
26277;SDS011;14000;52.056;8.510;2022-07-09T03:18:55;19.37;;;11.53;;
26277;SDS011;14000;52.056;8.510;2022-07-09T03:21:20;22.57;;;14.83;;
26277;SDS011;14000;52.056;8.510;2022-07-09T03:23:46;21.73;;;12.13;;
26277;SDS011;14000;52.056;8.510;2022-07-09T03:26:12;22.73;;;13.47;;
26277;SDS011;14000;52.056;8.510;2022-07-09T03:28:38;21.70;;;13.10;;
26277;SDS011;14000;52.056;8.510;2022-07-09T03:31:04;27.73;;;14.40;;
26277;SDS011;14000;52.056;8.510;2022-07-09T03:33:29;25.40;;;15.87;;
26277;SDS011;14000;52.056;8.510;2022-07-09T03:35:55;23.57;;;15.13;;
26277;SDS011;14000;52.056;8.510;2022-07-09T03:38:21;24.97;;;16.73;;
26277;SDS011;14000;52.056;8.510;2022-07-09T03:40:47;23.67;;;15.20;;
26277;SDS011;14000;52.056;8.510;2022-07-09T03:43:12;23.47;;;15.57;;
26277;SDS011;14000;52.056;8.510;2022-07-09T03:45:38;30.70;;;16.63;;
26277;SDS011;14000;52.056;8.510;2022-07-09T03:48:04;20.67;;;14.53;;
26277;SDS011;14000;52.056;8.510;2022-07-09T03:50:29;26.37;;;16.17;;
26277;SDS011;14000;52.056;8.510;2022-07-09T03:52:56;25.30;;;16.80;;
26277;SDS011;14000;52.056;8.510;2022-07-09T03:55:22;22.57;;;15.50;;
26277;SDS011;14000;52.056;8.510;2022-07-09T03:57:49;26.13;;;15.07;;
26277;SDS011;14000;52.056;8.510;2022-07-09T04:00:15;26.77;;;16.57;;
26277;SDS011;14000;52.056;8.510;2022-07-09T04:02:40;25.40;;;16.77;;
26277;SDS011;14000;52.056;8.510;2022-07-09T04:05:06;26.40;;;16.40;;
26277;SDS011;14000;52.056;8.510;2022-07-09T04:07:33;27.80;;;18.77;;
26277;SDS011;14000;52.056;8.510;2022-07-09T04:09:58;26.03;;;17.20;;
26277;SDS011;14000;52.056;8.510;2022-07-09T04:12:24;26.43;;;16.53;;
26277;SDS011;14000;52.056;8.510;2022-07-09T04:14:49;26.23;;;17.43;;
26277;SDS011;14000;52.056;8.510;2022-07-09T04:17:15;31.33;;;19.17;;
26277;SDS011;14000;52.056;8.510;2022-07-09T04:19:40;32.30;;;19.27;;
26277;SDS011;14000;52.056;8.510;2022-07-09T04:22:06;27.83;;;18.50;;
26277;SDS011;14000;52.056;8.510;2022-07-09T04:24:32;28.03;;;17.03;;
26277;SDS011;14000;52.056;8.510;2022-07-09T04:26:57;28.03;;;17.00;;
26277;SDS011;14000;52.056;8.510;2022-07-09T04:29:23;26.97;;;18.13;;
26277;SDS011;14000;52.056;8.510;2022-07-09T04:31:49;37.93;;;22.00;;
26277;SDS011;14000;52.056;8.510;2022-07-09T04:34:14;38.73;;;21.73;;
26277;SDS011;14000;52.056;8.510;2022-07-09T04:36:40;29.53;;;19.63;;
26277;SDS011;14000;52.056;8.510;2022-07-09T04:39:06;33.27;;;19.33;;
26277;SDS011;14000;52.056;8.510;2022-07-09T04:41:32;33.07;;;20.67;;
26277;SDS011;14000;52.056;8.510;2022-07-09T04:43:57;29.77;;;18.40;;
26277;SDS011;14000;52.056;8.510;2022-07-09T04:46:23;28.60;;;18.97;;
26277;SDS011;14000;52.056;8.510;2022-07-09T04:48:52;26.97;;;18.00;;
26277;SDS011;14000;52.056;8.510;2022-07-09T04:51:17;29.97;;;19.00;;
26277;SDS011;14000;52.056;8.510;2022-07-09T04:53:44;27.37;;;18.03;;
26277;SDS011;14000;52.056;8.510;2022-07-09T04:56:09;29.87;;;19.07;;
26277;SDS011;14000;52.056;8.510;2022-07-09T04:58:35;33.60;;;19.83;;
26277;SDS011;14000;52.056;8.510;2022-07-09T05:01:02;32.00;;;19.43;;
26277;SDS011;14000;52.056;8.510;2022-07-09T05:03:28;34.20;;;20.70;;
26277;SDS011;14000;52.056;8.510;2022-07-09T05:05:54;30.20;;;19.47;;
26277;SDS011;14000;52.056;8.510;2022-07-09T05:08:20;28.83;;;18.23;;
26277;SDS011;14000;52.056;8.510;2022-07-09T05:10:46;34.40;;;20.30;;
26277;SDS011;14000;52.056;8.510;2022-07-09T05:13:11;32.10;;;17.97;;
26277;SDS011;14000;52.056;8.510;2022-07-09T05:15:37;31.60;;;19.37;;
26277;SDS011;14000;52.056;8.510;2022-07-09T05:18:02;32.27;;;17.90;;
26277;SDS011;14000;52.056;8.510;2022-07-09T05:20:28;29.93;;;19.50;;
26277;SDS011;14000;52.056;8.510;2022-07-09T05:22:54;31.87;;;18.80;;
26277;SDS011;14000;52.056;8.510;2022-07-09T05:25:19;30.90;;;17.07;;
26277;SDS011;14000;52.056;8.510;2022-07-09T05:27:45;24.53;;;14.97;;
26277;SDS011;14000;52.056;8.510;2022-07-09T05:30:12;23.73;;;15.83;;
26277;SDS011;14000;52.056;8.510;2022-07-09T05:32:40;27.10;;;15.10;;
26277;SDS011;14000;52.056;8.510;2022-07-09T05:35:06;26.17;;;15.50;;
26277;SDS011;14000;52.056;8.510;2022-07-09T05:37:32;25.03;;;14.27;;
26277;SDS011;14000;52.056;8.510;2022-07-09T05:39:58;23.67;;;14.53;;
26277;SDS011;14000;52.056;8.510;2022-07-09T05:42:25;25.97;;;14.33;;
26277;SDS011;14000;52.056;8.510;2022-07-09T05:44:50;25.50;;;13.53;;
26277;SDS011;14000;52.056;8.510;2022-07-09T05:47:16;21.87;;;13.27;;
26277;SDS011;14000;52.056;8.510;2022-07-09T05:49:42;27.67;;;15.23;;
26277;SDS011;14000;52.056;8.510;2022-07-09T05:52:07;24.13;;;13.87;;
26277;SDS011;14000;52.056;8.510;2022-07-09T05:54:33;26.43;;;14.70;;
26277;SDS011;14000;52.056;8.510;2022-07-09T05:56:59;25.67;;;14.23;;
26277;SDS011;14000;52.056;8.510;2022-07-09T05:59:24;30.27;;;15.63;;
26277;SDS011;14000;52.056;8.510;2022-07-09T06:01:50;25.10;;;15.20;;
26277;SDS011;14000;52.056;8.510;2022-07-09T06:04:16;23.67;;;14.70;;
26277;SDS011;14000;52.056;8.510;2022-07-09T06:06:41;24.87;;;15.40;;
26277;SDS011;14000;52.056;8.510;2022-07-09T06:09:07;26.53;;;13.77;;
26277;SDS011;14000;52.056;8.510;2022-07-09T06:11:33;26.77;;;15.10;;
26277;SDS011;14000;52.056;8.510;2022-07-09T06:13:58;28.00;;;13.63;;
26277;SDS011;14000;52.056;8.510;2022-07-09T06:16:24;26.53;;;13.87;;
26277;SDS011;14000;52.056;8.510;2022-07-09T06:18:49;26.47;;;14.27;;
26277;SDS011;14000;52.056;8.510;2022-07-09T06:21:15;25.60;;;12.03;;
26277;SDS011;14000;52.056;8.510;2022-07-09T06:23:41;20.87;;;12.47;;
26277;SDS011;14000;52.056;8.510;2022-07-09T06:26:06;19.83;;;11.53;;
26277;SDS011;14000;52.056;8.510;2022-07-09T06:28:35;22.53;;;12.00;;
26277;SDS011;14000;52.056;8.510;2022-07-09T06:31:01;22.53;;;10.40;;
26277;SDS011;14000;52.056;8.510;2022-07-09T06:33:27;17.10;;;9.17;;
26277;SDS011;14000;52.056;8.510;2022-07-09T06:35:52;20.17;;;9.07;;
26277;SDS011;14000;52.056;8.510;2022-07-09T06:38:18;19.17;;;9.07;;
26277;SDS011;14000;52.056;8.510;2022-07-09T06:40:44;14.03;;;8.00;;
26277;SDS011;14000;52.056;8.510;2022-07-09T06:43:09;13.77;;;7.67;;
26277;SDS011;14000;52.056;8.510;2022-07-09T06:45:36;16.30;;;8.23;;
26277;SDS011;14000;52.056;8.510;2022-07-09T06:48:02;15.47;;;8.00;;
26277;SDS011;14000;52.056;8.510;2022-07-09T06:50:28;16.07;;;8.17;;
26277;SDS011;14000;52.056;8.510;2022-07-09T06:52:53;16.33;;;7.43;;
26277;SDS011;14000;52.056;8.510;2022-07-09T06:55:19;14.13;;;6.97;;
26277;SDS011;14000;52.056;8.510;2022-07-09T06:57:44;17.07;;;7.30;;
26277;SDS011;14000;52.056;8.510;2022-07-09T07:00:10;14.80;;;6.40;;
26277;SDS011;14000;52.056;8.510;2022-07-09T07:02:36;14.87;;;6.60;;
26277;SDS011;14000;52.056;8.510;2022-07-09T07:05:01;14.07;;;6.47;;
26277;SDS011;14000;52.056;8.510;2022-07-09T07:07:27;14.83;;;5.90;;
26277;SDS011;14000;52.056;8.510;2022-07-09T07:09:53;14.10;;;6.53;;
26277;SDS011;14000;52.056;8.510;2022-07-09T07:12:18;14.00;;;6.10;;
26277;SDS011;14000;52.056;8.510;2022-07-09T07:14:44;13.97;;;6.50;;
26277;SDS011;14000;52.056;8.510;2022-07-09T07:17:10;13.47;;;6.00;;
26277;SDS011;14000;52.056;8.510;2022-07-09T07:19:35;11.57;;;5.37;;
26277;SDS011;14000;52.056;8.510;2022-07-09T07:22:01;13.90;;;6.00;;
26277;SDS011;14000;52.056;8.510;2022-07-09T07:24:27;13.50;;;5.27;;
26277;SDS011;14000;52.056;8.510;2022-07-09T07:26:52;12.90;;;5.50;;
26277;SDS011;14000;52.056;8.510;2022-07-09T07:29:19;10.87;;;4.80;;
26277;SDS011;14000;52.056;8.510;2022-07-09T07:31:46;13.27;;;5.20;;
26277;SDS011;14000;52.056;8.510;2022-07-09T07:34:12;11.67;;;4.20;;
26277;SDS011;14000;52.056;8.510;2022-07-09T07:36:37;13.63;;;4.27;;
26277;SDS011;14000;52.056;8.510;2022-07-09T07:39:03;10.03;;;4.03;;
26277;SDS011;14000;52.056;8.510;2022-07-09T07:41:29;13.67;;;4.10;;
26277;SDS011;14000;52.056;8.510;2022-07-09T07:43:54;11.97;;;4.10;;
26277;SDS011;14000;52.056;8.510;2022-07-09T07:46:20;11.20;;;3.50;;
26277;SDS011;14000;52.056;8.510;2022-07-09T07:48:45;9.53;;;3.70;;
26277;SDS011;14000;52.056;8.510;2022-07-09T07:51:11;11.53;;;4.97;;
26277;SDS011;14000;52.056;8.510;2022-07-09T07:53:37;10.97;;;3.70;;
26277;SDS011;14000;52.056;8.510;2022-07-09T07:56:03;18.47;;;7.77;;
26277;SDS011;14000;52.056;8.510;2022-07-09T07:58:29;11.13;;;4.00;;
26277;SDS011;14000;52.056;8.510;2022-07-09T08:00:55;10.80;;;4.10;;
26277;SDS011;14000;52.056;8.510;2022-07-09T08:03:21;11.63;;;4.43;;
26277;SDS011;14000;52.056;8.510;2022-07-09T08:05:47;9.53;;;3.50;;
26277;SDS011;14000;52.056;8.510;2022-07-09T08:08:13;10.60;;;3.27;;
26277;SDS011;14000;52.056;8.510;2022-07-09T08:10:38;10.20;;;3.90;;
26277;SDS011;14000;52.056;8.510;2022-07-09T08:13:04;10.07;;;3.80;;
26277;SDS011;14000;52.056;8.510;2022-07-09T08:15:30;9.40;;;3.67;;
26277;SDS011;14000;52.056;8.510;2022-07-09T08:17:56;9.67;;;3.60;;
26277;SDS011;14000;52.056;8.510;2022-07-09T08:20:21;9.70;;;3.40;;
26277;SDS011;14000;52.056;8.510;2022-07-09T08:22:47;8.83;;;3.37;;
26277;SDS011;14000;52.056;8.510;2022-07-09T08:25:13;9.13;;;3.40;;
26277;SDS011;14000;52.056;8.510;2022-07-09T08:27:39;9.60;;;3.40;;
26277;SDS011;14000;52.056;8.510;2022-07-09T08:30:05;8.93;;;3.13;;
26277;SDS011;14000;52.056;8.510;2022-07-09T08:32:31;14.57;;;5.07;;
26277;SDS011;14000;52.056;8.510;2022-07-09T08:34:57;11.40;;;4.60;;
26277;SDS011;14000;52.056;8.510;2022-07-09T08:37:22;10.27;;;3.53;;
26277;SDS011;14000;52.056;8.510;2022-07-09T08:39:48;7.33;;;2.77;;
26277;SDS011;14000;52.056;8.510;2022-07-09T08:42:14;8.37;;;2.60;;
26277;SDS011;14000;52.056;8.510;2022-07-09T08:44:40;9.47;;;3.00;;
26277;SDS011;14000;52.056;8.510;2022-07-09T08:47:11;8.73;;;2.93;;
26277;SDS011;14000;52.056;8.510;2022-07-09T08:49:37;8.70;;;2.97;;
26277;SDS011;14000;52.056;8.510;2022-07-09T08:52:03;9.23;;;2.87;;
26277;SDS011;14000;52.056;8.510;2022-07-09T08:54:31;8.50;;;2.60;;
26277;SDS011;14000;52.056;8.510;2022-07-09T08:57:07;8.57;;;2.93;;
26277;SDS011;14000;52.056;8.510;2022-07-09T08:59:33;8.63;;;2.70;;
26277;SDS011;14000;52.056;8.510;2022-07-09T09:02:05;9.87;;;2.80;;
26277;SDS011;14000;52.056;8.510;2022-07-09T09:04:33;8.13;;;2.70;;
26277;SDS011;14000;52.056;8.510;2022-07-09T09:07:17;9.00;;;2.40;;
26277;SDS011;14000;52.056;8.510;2022-07-09T09:09:44;9.03;;;2.27;;
26277;SDS011;14000;52.056;8.510;2022-07-09T09:12:11;7.13;;;2.20;;
26277;SDS011;14000;52.056;8.510;2022-07-09T09:14:37;6.83;;;2.00;;
26277;SDS011;14000;52.056;8.510;2022-07-09T09:17:06;9.47;;;2.40;;
26277;SDS011;14000;52.056;8.510;2022-07-09T09:19:37;7.27;;;2.00;;
26277;SDS011;14000;52.056;8.510;2022-07-09T09:22:04;8.13;;;2.10;;
26277;SDS011;14000;52.056;8.510;2022-07-09T09:24:30;7.57;;;2.07;;
26277;SDS011;14000;52.056;8.510;2022-07-09T09:26:59;7.73;;;2.17;;
26277;SDS011;14000;52.056;8.510;2022-07-09T09:29:26;8.17;;;2.30;;
26277;SDS011;14000;52.056;8.510;2022-07-09T09:31:52;7.70;;;2.23;;
26277;SDS011;14000;52.056;8.510;2022-07-09T09:34:19;7.73;;;2.20;;
26277;SDS011;14000;52.056;8.510;2022-07-09T09:36:46;7.03;;;2.33;;
26277;SDS011;14000;52.056;8.510;2022-07-09T09:39:16;9.43;;;2.43;;
26277;SDS011;14000;52.056;8.510;2022-07-09T09:41:49;8.23;;;2.20;;
26277;SDS011;14000;52.056;8.510;2022-07-09T09:44:17;7.90;;;2.40;;
26277;SDS011;14000;52.056;8.510;2022-07-09T09:46:49;12.70;;;4.23;;
26277;SDS011;14000;52.056;8.510;2022-07-09T09:49:16;10.73;;;4.13;;
26277;SDS011;14000;52.056;8.510;2022-07-09T09:51:44;7.90;;;2.43;;
26277;SDS011;14000;52.056;8.510;2022-07-09T09:54:13;8.50;;;2.50;;
26277;SDS011;14000;52.056;8.510;2022-07-09T09:56:39;9.23;;;2.50;;
26277;SDS011;14000;52.056;8.510;2022-07-09T09:59:04;7.83;;;2.80;;
26277;SDS011;14000;52.056;8.510;2022-07-09T10:01:30;11.37;;;2.73;;
26277;SDS011;14000;52.056;8.510;2022-07-09T10:03:57;8.30;;;2.53;;
26277;SDS011;14000;52.056;8.510;2022-07-09T10:06:23;10.10;;;2.83;;
26277;SDS011;14000;52.056;8.510;2022-07-09T10:08:50;10.27;;;2.90;;
26277;SDS011;14000;52.056;8.510;2022-07-09T10:11:16;9.27;;;3.40;;
26277;SDS011;14000;52.056;8.510;2022-07-09T10:13:51;10.10;;;3.00;;
26277;SDS011;14000;52.056;8.510;2022-07-09T10:16:33;10.17;;;3.00;;
26277;SDS011;14000;52.056;8.510;2022-07-09T10:19:04;8.30;;;2.23;;
26277;SDS011;14000;52.056;8.510;2022-07-09T10:23:59;9.03;;;2.73;;
26277;SDS011;14000;52.056;8.510;2022-07-09T10:26:39;8.40;;;2.20;;
26277;SDS011;14000;52.056;8.510;2022-07-09T10:29:33;8.83;;;1.80;;
26277;SDS011;14000;52.056;8.510;2022-07-09T10:31:59;7.80;;;2.00;;
26277;SDS011;14000;52.056;8.510;2022-07-09T10:37:30;8.20;;;2.10;;
26277;SDS011;14000;52.056;8.510;2022-07-09T10:39:56;6.97;;;1.93;;
26277;SDS011;14000;52.056;8.510;2022-07-09T10:42:29;7.83;;;2.00;;
26277;SDS011;14000;52.056;8.510;2022-07-09T10:44:54;6.87;;;2.10;;
26277;SDS011;14000;52.056;8.510;2022-07-09T10:47:20;7.13;;;1.80;;
26277;SDS011;14000;52.056;8.510;2022-07-09T10:49:46;6.73;;;1.87;;
26277;SDS011;14000;52.056;8.510;2022-07-09T10:52:11;7.73;;;1.80;;
26277;SDS011;14000;52.056;8.510;2022-07-09T10:54:47;6.53;;;2.10;;
26277;SDS011;14000;52.056;8.510;2022-07-09T10:57:13;5.47;;;1.70;;
26277;SDS011;14000;52.056;8.510;2022-07-09T10:59:44;8.57;;;2.20;;
26277;SDS011;14000;52.056;8.510;2022-07-09T11:02:17;8.10;;;1.90;;
26277;SDS011;14000;52.056;8.510;2022-07-09T11:04:50;8.00;;;1.93;;
26277;SDS011;14000;52.056;8.510;2022-07-09T11:07:22;7.83;;;1.60;;
26277;SDS011;14000;52.056;8.510;2022-07-09T11:09:48;7.27;;;1.80;;
26277;SDS011;14000;52.056;8.510;2022-07-09T11:12:16;7.07;;;1.67;;
26277;SDS011;14000;52.056;8.510;2022-07-09T11:14:43;6.17;;;1.33;;
26277;SDS011;14000;52.056;8.510;2022-07-09T11:17:18;5.93;;;1.50;;
26277;SDS011;14000;52.056;8.510;2022-07-09T11:19:45;5.43;;;1.30;;
26277;SDS011;14000;52.056;8.510;2022-07-09T11:22:12;8.40;;;1.60;;
26277;SDS011;14000;52.056;8.510;2022-07-09T11:24:39;5.50;;;1.73;;
26277;SDS011;14000;52.056;8.510;2022-07-09T11:27:05;5.27;;;1.50;;
26277;SDS011;14000;52.056;8.510;2022-07-09T11:29:32;5.87;;;1.60;;
26277;SDS011;14000;52.056;8.510;2022-07-09T11:31:58;6.47;;;1.33;;
26277;SDS011;14000;52.056;8.510;2022-07-09T11:34:25;8.03;;;1.70;;
26277;SDS011;14000;52.056;8.510;2022-07-09T11:36:55;8.43;;;1.90;;
26277;SDS011;14000;52.056;8.510;2022-07-09T11:39:31;6.47;;;1.17;;
26277;SDS011;14000;52.056;8.510;2022-07-09T11:41:59;4.13;;;1.20;;
26277;SDS011;14000;52.056;8.510;2022-07-09T11:44:26;4.07;;;1.23;;
26277;SDS011;14000;52.056;8.510;2022-07-09T11:54:54;6.67;;;1.40;;
26277;SDS011;14000;52.056;8.510;2022-07-09T11:57:23;5.10;;;1.20;;
26277;SDS011;14000;52.056;8.510;2022-07-09T11:59:49;4.00;;;1.10;;
26277;SDS011;14000;52.056;8.510;2022-07-09T12:02:25;5.00;;;1.23;;
26277;SDS011;14000;52.056;8.510;2022-07-09T12:04:51;4.53;;;1.17;;
26277;SDS011;14000;52.056;8.510;2022-07-09T12:07:17;6.23;;;1.20;;
26277;SDS011;14000;52.056;8.510;2022-07-09T12:09:42;5.37;;;1.20;;
26277;SDS011;14000;52.056;8.510;2022-07-09T12:12:08;5.73;;;1.43;;
26277;SDS011;14000;52.056;8.510;2022-07-09T12:14:34;4.27;;;1.10;;
26277;SDS011;14000;52.056;8.510;2022-07-09T12:16:59;4.57;;;1.20;;
26277;SDS011;14000;52.056;8.510;2022-07-09T12:19:25;5.37;;;1.37;;
26277;SDS011;14000;52.056;8.510;2022-07-09T12:21:51;4.30;;;1.40;;
26277;SDS011;14000;52.056;8.510;2022-07-09T12:24:16;7.80;;;2.60;;
26277;SDS011;14000;52.056;8.510;2022-07-09T12:26:42;6.43;;;1.43;;
26277;SDS011;14000;52.056;8.510;2022-07-09T12:29:08;5.30;;;1.13;;
26277;SDS011;14000;52.056;8.510;2022-07-09T12:31:34;5.47;;;1.30;;
26277;SDS011;14000;52.056;8.510;2022-07-09T12:34:03;4.33;;;1.17;;
26277;SDS011;14000;52.056;8.510;2022-07-09T12:36:30;6.90;;;1.60;;
26277;SDS011;14000;52.056;8.510;2022-07-09T12:38:56;5.50;;;1.10;;
26277;SDS011;14000;52.056;8.510;2022-07-09T12:41:22;5.30;;;1.20;;
26277;SDS011;14000;52.056;8.510;2022-07-09T12:43:47;5.50;;;1.50;;
26277;SDS011;14000;52.056;8.510;2022-07-09T12:46:13;4.90;;;1.20;;
26277;SDS011;14000;52.056;8.510;2022-07-09T12:48:38;4.60;;;1.23;;
26277;SDS011;14000;52.056;8.510;2022-07-09T12:51:04;3.93;;;0.93;;
26277;SDS011;14000;52.056;8.510;2022-07-09T12:53:30;5.07;;;1.30;;
26277;SDS011;14000;52.056;8.510;2022-07-09T12:55:55;3.77;;;1.17;;
26277;SDS011;14000;52.056;8.510;2022-07-09T12:58:21;4.83;;;1.23;;
26277;SDS011;14000;52.056;8.510;2022-07-09T13:00:46;7.17;;;1.20;;
26277;SDS011;14000;52.056;8.510;2022-07-09T13:03:12;5.53;;;0.90;;
26277;SDS011;14000;52.056;8.510;2022-07-09T13:05:38;4.77;;;0.90;;
26277;SDS011;14000;52.056;8.510;2022-07-09T13:08:04;4.80;;;1.10;;
26277;SDS011;14000;52.056;8.510;2022-07-09T13:10:30;4.77;;;1.00;;
26277;SDS011;14000;52.056;8.510;2022-07-09T13:12:55;4.77;;;1.10;;
26277;SDS011;14000;52.056;8.510;2022-07-09T13:15:21;4.03;;;1.10;;
26277;SDS011;14000;52.056;8.510;2022-07-09T13:17:47;5.63;;;1.07;;
26277;SDS011;14000;52.056;8.510;2022-07-09T13:20:13;8.57;;;1.20;;
26277;SDS011;14000;52.056;8.510;2022-07-09T13:22:39;3.83;;;1.00;;
26277;SDS011;14000;52.056;8.510;2022-07-09T13:25:04;2.83;;;0.93;;
26277;SDS011;14000;52.056;8.510;2022-07-09T13:27:30;3.67;;;1.00;;
26277;SDS011;14000;52.056;8.510;2022-07-09T13:29:56;4.83;;;1.10;;
26277;SDS011;14000;52.056;8.510;2022-07-09T13:32:22;4.87;;;1.20;;
26277;SDS011;14000;52.056;8.510;2022-07-09T13:34:49;3.60;;;1.03;;
26277;SDS011;14000;52.056;8.510;2022-07-09T13:37:15;2.83;;;0.90;;
26277;SDS011;14000;52.056;8.510;2022-07-09T13:39:41;3.70;;;0.90;;
26277;SDS011;14000;52.056;8.510;2022-07-09T13:42:07;3.33;;;1.00;;
26277;SDS011;14000;52.056;8.510;2022-07-09T13:44:33;5.07;;;1.00;;
26277;SDS011;14000;52.056;8.510;2022-07-09T13:46:59;3.70;;;1.10;;
26277;SDS011;14000;52.056;8.510;2022-07-09T13:49:25;3.97;;;0.90;;
26277;SDS011;14000;52.056;8.510;2022-07-09T13:51:51;5.10;;;1.23;;
26277;SDS011;14000;52.056;8.510;2022-07-09T13:54:16;4.30;;;1.13;;
26277;SDS011;14000;52.056;8.510;2022-07-09T13:56:42;3.63;;;1.00;;
26277;SDS011;14000;52.056;8.510;2022-07-09T13:59:08;4.83;;;1.10;;
26277;SDS011;14000;52.056;8.510;2022-07-09T14:01:33;6.73;;;1.23;;
26277;SDS011;14000;52.056;8.510;2022-07-09T14:03:59;5.33;;;1.30;;
26277;SDS011;14000;52.056;8.510;2022-07-09T14:06:25;4.80;;;1.20;;
26277;SDS011;14000;52.056;8.510;2022-07-09T14:08:51;5.20;;;1.20;;
26277;SDS011;14000;52.056;8.510;2022-07-09T14:11:17;4.30;;;1.17;;
26277;SDS011;14000;52.056;8.510;2022-07-09T14:13:42;5.07;;;1.30;;
26277;SDS011;14000;52.056;8.510;2022-07-09T14:16:10;5.37;;;1.20;;
26277;SDS011;14000;52.056;8.510;2022-07-09T14:18:35;4.47;;;1.30;;
26277;SDS011;14000;52.056;8.510;2022-07-09T14:21:01;4.63;;;1.17;;
26277;SDS011;14000;52.056;8.510;2022-07-09T14:23:27;6.33;;;1.23;;
26277;SDS011;14000;52.056;8.510;2022-07-09T14:25:52;6.20;;;1.23;;
26277;SDS011;14000;52.056;8.510;2022-07-09T14:28:18;4.83;;;1.20;;
26277;SDS011;14000;52.056;8.510;2022-07-09T14:30:44;9.90;;;1.43;;
26277;SDS011;14000;52.056;8.510;2022-07-09T14:33:09;5.80;;;1.40;;
26277;SDS011;14000;52.056;8.510;2022-07-09T14:35:35;6.57;;;1.17;;
26277;SDS011;14000;52.056;8.510;2022-07-09T14:38:01;7.17;;;1.30;;
26277;SDS011;14000;52.056;8.510;2022-07-09T14:40:27;5.07;;;1.23;;
26277;SDS011;14000;52.056;8.510;2022-07-09T14:42:53;6.70;;;1.40;;
26277;SDS011;14000;52.056;8.510;2022-07-09T14:45:19;5.30;;;1.27;;
26277;SDS011;14000;52.056;8.510;2022-07-09T14:47:45;6.50;;;1.50;;